Time;durP1;ratioP1;P1;durP2;ratioP2;P2;SDS_P1;SDS_P2;PMS_P1;PMS_P2;Temp;Humidity;BMP_temperature;BMP_pressure;BME280_temperature;BME280_humidity;BME280_pressure;Samples;Min_cycle;Max_cycle;Signal;HPM_P1;HPM_P2
2022/01/02 00:00:05;;;;;;;7.57;3.17;;;11.40;99.90;;;;;;4973357;28;20126;-82
2022/01/02 00:02:33;;;;;;;10.98;4.57;;;11.40;99.90;;;;;;4957329;28;20070;-82
2022/01/02 00:05:08;;;;;;;7.57;3.95;;;11.40;99.90;;;;;;4973584;28;20631;-82
2022/01/02 00:07:55;;;;;;;6.40;3.40;;;11.40;99.90;;;;;;4972920;28;20097;-82
2022/01/02 00:10:21;;;;;;;10.10;3.40;;;11.30;99.90;;;;;;4973397;28;20515;-82
2022/01/02 00:12:56;;;;;;;11.88;4.72;;;11.30;99.90;;;;;;4972915;28;20527;-82
2022/01/02 00:15:23;;;;;;;9.82;3.72;;;11.30;99.90;;;;;;4972817;28;20058;-82
2022/01/02 00:17:54;;;;;;;5.88;3.28;;;11.30;99.90;;;;;;4972913;28;20043;-82
2022/01/02 00:20:21;;;;;;;6.82;3.42;;;11.20;99.90;;;;;;4972860;28;20042;-82
2022/01/02 00:22:50;;;;;;;7.50;3.85;;;11.20;99.90;;;;;;4973298;28;20035;-82
2022/01/02 00:25:27;;;;;;;10.50;3.92;;;11.20;99.90;;;;;;4972965;28;20055;-79
2022/01/02 00:27:54;;;;;;;9.43;3.70;;;11.20;99.90;;;;;;4972683;28;20074;-79
2022/01/02 00:30:19;;;;;;;6.15;3.60;;;11.20;99.90;;;;;;4972783;28;20078;-80
2022/01/02 00:32:45;;;;;;;9.57;3.28;;;11.20;99.90;;;;;;4956945;28;20051;-79
2022/01/02 00:35:11;;;;;;;10.23;3.90;;;11.20;99.90;;;;;;4956058;28;20058;-80
2022/01/02 00:37:36;;;;;;;11.15;3.95;;;11.20;99.90;;;;;;4972496;28;20373;-79
2022/01/02 00:40:03;;;;;;;6.78;3.45;;;11.10;99.90;;;;;;4972332;28;20050;-80
2022/01/02 00:42:34;;;;;;;9.15;4.00;;;11.20;99.90;;;;;;4972508;28;20039;-79
2022/01/02 00:45:14;;;;;;;8.07;3.70;;;11.10;99.90;;;;;;4972362;28;20050;-80
2022/01/02 00:48:03;;;;;;;7.20;3.45;;;11.20;99.90;;;;;;4972489;28;20060;-79
2022/01/02 00:50:38;;;;;;;8.73;3.65;;;11.10;99.90;;;;;;4972735;28;20078;-79
2022/01/02 00:53:06;;;;;;;6.18;4.07;;;11.20;99.90;;;;;;4972403;28;20047;-79
2022/01/02 00:55:35;;;;;;;7.57;3.60;;;11.10;99.90;;;;;;4972329;28;20150;-80
2022/01/02 00:58:07;;;;;;;6.80;3.50;;;11.20;99.90;;;;;;4972387;28;20053;-79
2022/01/02 01:00:33;;;;;;;10.40;4.95;;;11.10;99.90;;;;;;4956594;28;20121;-79
2022/01/02 01:03:09;;;;;;;6.65;3.28;;;11.20;99.90;;;;;;4972843;28;20443;-79
2022/01/02 01:05:37;;;;;;;7.20;3.42;;;11.20;99.90;;;;;;4972168;28;20043;-79
2022/01/02 01:08:05;;;;;;;6.63;3.28;;;11.10;99.90;;;;;;4956226;28;20057;-79
2022/01/02 01:10:34;;;;;;;11.70;3.92;;;11.20;99.90;;;;;;4972418;28;20054;-79
2022/01/02 01:13:02;;;;;;;8.95;3.75;;;11.20;99.90;;;;;;4972664;28;20047;-80
2022/01/02 01:15:29;;;;;;;8.15;3.78;;;11.20;99.90;;;;;;4972274;28;20093;-79
2022/01/02 01:17:57;;;;;;;8.63;3.50;;;11.20;99.90;;;;;;4973293;28;20039;-79
2022/01/02 01:20:25;;;;;;;10.48;4.18;;;11.10;99.90;;;;;;4973555;28;20046;-80
2022/01/02 01:22:51;;;;;;;9.95;4.30;;;11.10;99.90;;;;;;4973755;28;20050;-80
2022/01/02 01:25:19;;;;;;;9.15;3.95;;;11.10;99.90;;;;;;4973721;28;20514;-80
2022/01/02 01:27:45;;;;;;;12.38;4.82;;;11.10;99.90;;;;;;4971750;28;20047;-80
2022/01/02 01:30:12;;;;;;;9.68;4.43;;;11.10;99.90;;;;;;4971620;28;20553;-80
2022/01/02 01:32:38;;;;;;;6.05;3.33;;;11.00;99.90;;;;;;4971881;28;20062;-80
2022/01/02 01:35:05;;;;;;;10.48;4.65;;;11.10;99.90;;;;;;4955456;28;20047;-80
2022/01/02 01:37:30;;;;;;;11.80;3.97;;;11.10;99.90;;;;;;4971749;28;20081;-80
2022/01/02 01:39:56;;;;;;;8.82;3.30;;;11.00;99.90;;;;;;4971963;28;20085;-80
2022/01/02 01:42:37;;;;;;;12.68;4.90;;;11.10;99.90;;;;;;4975231;28;20039;-80
2022/01/02 01:47:47;;;;;;;8.10;3.50;;;11.00;99.90;;;;;;4975434;28;20050;-80
2022/01/02 01:50:13;;;;;;;8.35;3.42;;;11.00;99.90;;;;;;4975272;28;20043;-80
2022/01/02 01:52:39;;;;;;;8.57;3.72;;;11.00;99.90;;;;;;4959000;28;20081;-80
2022/01/02 01:55:06;;;;;;;10.82;4.05;;;11.00;99.90;;;;;;4974823;28;20078;-80
2022/01/02 01:57:32;;;;;;;12.75;4.18;;;11.00;99.90;;;;;;4974928;28;20077;-80
2022/01/02 01:59:57;;;;;;;7.45;3.90;;;11.00;99.90;;;;;;4975095;28;20511;-80
2022/01/02 02:02:23;;;;;;;9.07;4.18;;;11.00;99.90;;;;;;4976206;28;20093;-80
2022/01/02 02:04:49;;;;;;;8.35;3.90;;;11.00;99.90;;;;;;4974895;28;20415;-80
2022/01/02 02:07:15;;;;;;;8.10;4.28;;;11.00;99.90;;;;;;4958523;28;20055;-80
2022/01/02 02:10:11;;;;;;;8.70;3.70;;;11.00;99.90;;;;;;4974787;28;20055;-80
2022/01/02 02:12:38;;;;;;;10.95;3.75;;;11.00;99.90;;;;;;4975098;28;20474;-80
2022/01/02 02:15:04;;;;;;;8.43;4.55;;;11.00;99.90;;;;;;4974497;28;20042;-80
2022/01/02 02:17:31;;;;;;;9.00;4.10;;;11.00;99.90;;;;;;4974665;28;20039;-79
2022/01/02 02:19:58;;;;;;;8.50;4.20;;;11.00;99.90;;;;;;4974873;28;20400;-80
2022/01/02 02:22:25;;;;;;;11.63;4.10;;;11.10;99.90;;;;;;4974817;28;20054;-80
2022/01/02 02:24:51;;;;;;;8.02;3.70;;;11.00;99.90;;;;;;4974526;28;20062;-79
2022/01/02 02:27:22;;;;;;;15.65;5.22;;;11.00;99.90;;;;;;4977331;28;20043;-79
2022/01/02 02:29:48;;;;;;;14.30;4.93;;;11.10;99.90;;;;;;4977798;28;20035;-79
2022/01/02 02:32:13;;;;;;;10.95;4.60;;;11.10;99.90;;;;;;4976257;28;20043;-79
2022/01/02 02:34:39;;;;;;;10.88;4.30;;;11.10;99.90;;;;;;4975328;28;20043;-79
2022/01/02 02:37:04;;;;;;;9.93;4.18;;;11.20;99.90;;;;;;4975729;28;20038;-80
2022/01/02 02:39:33;;;;;;;9.23;4.20;;;11.10;99.90;;;;;;4975330;28;20054;-79
2022/01/02 02:41:58;;;;;;;8.30;4.25;;;11.10;99.90;;;;;;4959609;28;20488;-79
2022/01/02 02:44:36;;;;;;;10.38;4.28;;;11.20;99.90;;;;;;4975853;28;20057;-79
2022/01/02 02:49:46;;;;;;;10.40;4.45;;;11.10;99.90;;;;;;4974991;28;20101;-80
2022/01/02 02:52:25;;;;;;;10.60;4.43;;;11.10;99.90;;;;;;4975439;28;20070;-80
2022/01/02 02:54:51;;;;;;;9.27;3.70;;;11.10;99.90;;;;;;4975910;28;20104;-79
2022/01/02 02:57:19;;;;;;;12.25;3.95;;;11.10;99.90;;;;;;4975357;28;20051;-81
2022/01/02 02:59:45;;;;;;;10.82;4.20;;;11.10;99.90;;;;;;4975695;28;20043;-82
2022/01/02 03:02:10;;;;;;;6.95;3.50;;;11.10;99.90;;;;;;4975811;28;20174;-82
2022/01/02 03:04:35;;;;;;;10.07;4.70;;;11.10;99.90;;;;;;4977276;28;20164;-82
2022/01/02 03:07:01;;;;;;;10.52;4.22;;;11.00;99.90;;;;;;4975458;28;20078;-79
2022/01/02 03:09:42;;;;;;;10.30;4.13;;;11.10;99.90;;;;;;4975729;28;20407;-79
2022/01/02 03:12:11;;;;;;;11.50;4.10;;;11.10;99.90;;;;;;4976684;28;20190;-79
2022/01/02 03:14:36;;;;;;;7.43;4.45;;;11.00;99.90;;;;;;4976024;28;20509;-79
2022/01/02 03:17:03;;;;;;;11.50;3.90;;;11.00;99.90;;;;;;4974644;28;20045;-79
2022/01/02 03:19:29;;;;;;;10.60;4.07;;;11.00;99.90;;;;;;4975203;28;20440;-79
2022/01/02 03:21:55;;;;;;;12.80;3.78;;;11.00;99.90;;;;;;4976076;28;20073;-79
2022/01/02 03:24:20;;;;;;;10.25;3.67;;;11.00;99.90;;;;;;4974381;28;20419;-80
2022/01/02 03:26:46;;;;;;;10.60;5.05;;;11.00;99.90;;;;;;4974468;28;20050;-79
2022/01/02 03:29:11;;;;;;;11.77;4.38;;;11.00;99.90;;;;;;4974275;28;20046;-80
2022/01/02 03:31:37;;;;;;;9.70;4.00;;;11.10;99.90;;;;;;4974517;28;20042;-79
2022/01/02 03:34:03;;;;;;;9.43;4.55;;;11.10;99.90;;;;;;4973973;28;20039;-79
2022/01/02 03:36:28;;;;;;;10.73;3.45;;;11.10;99.90;;;;;;4974070;28;20123;-79
2022/01/02 03:38:54;;;;;;;15.60;4.43;;;11.10;99.90;;;;;;4974309;28;20070;-79
2022/01/02 03:41:19;;;;;;;9.55;3.88;;;11.10;99.90;;;;;;4973851;28;20078;-79
2022/01/02 03:43:45;;;;;;;10.32;3.97;;;11.10;99.90;;;;;;4974160;28;20078;-79
2022/01/02 03:46:11;;;;;;;9.90;3.90;;;11.10;99.90;;;;;;4973884;28;20061;-79
2022/01/02 03:48:37;;;;;;;8.93;4.10;;;11.20;99.90;;;;;;4973903;28;20518;-79
2022/01/02 03:51:03;;;;;;;7.90;3.67;;;11.10;99.90;;;;;;4974112;28;20038;-79
2022/01/02 03:53:28;;;;;;;12.40;4.47;;;11.20;99.90;;;;;;4974262;28;20046;-79
2022/01/02 03:55:54;;;;;;;16.50;3.92;;;11.20;99.90;;;;;;4973652;28;20046;-79
2022/01/02 03:58:19;;;;;;;16.00;4.05;;;11.20;99.90;;;;;;4973934;28;20126;-79
2022/01/02 04:00:45;;;;;;;11.57;4.25;;;11.30;99.90;;;;;;4973666;28;20043;-80
2022/01/02 04:03:11;;;;;;;7.15;3.17;;;11.20;99.90;;;;;;4973706;28;20173;-79
2022/01/02 04:05:36;;;;;;;14.98;3.78;;;11.30;99.90;;;;;;4974903;28;20054;-79
2022/01/02 04:08:04;;;;;;;12.10;3.60;;;11.30;99.90;;;;;;4974099;28;20046;-79
2022/01/02 04:10:29;;;;;;;7.55;3.97;;;11.30;99.90;;;;;;4974136;28;20054;-79
2022/01/02 04:12:55;;;;;;;10.25;2.70;;;11.30;99.90;;;;;;4973571;28;20042;-79
2022/01/02 04:15:21;;;;;;;10.73;3.42;;;11.30;99.90;;;;;;4973548;28;20439;-79
2022/01/02 04:17:46;;;;;;;10.60;3.55;;;11.30;99.90;;;;;;4958705;28;20034;-79
2022/01/02 04:20:14;;;;;;;13.38;4.10;;;11.30;99.90;;;;;;4973929;28;20518;-79
2022/01/02 04:22:40;;;;;;;11.98;3.20;;;11.30;99.90;;;;;;4957403;28;20053;-79
2022/01/02 04:25:06;;;;;;;31.80;5.75;;;11.40;99.90;;;;;;4973013;28;20043;-79
2022/01/02 04:27:32;;;;;;;15.25;4.60;;;11.40;99.90;;;;;;4973678;28;20376;-79
2022/01/02 04:29:57;;;;;;;14.75;3.53;;;11.40;99.90;;;;;;4973385;28;20193;-79
2022/01/02 04:32:23;;;;;;;8.38;3.25;;;11.40;99.90;;;;;;4973194;28;20042;-79
2022/01/02 04:34:49;;;;;;;12.63;3.88;;;11.50;99.90;;;;;;4973339;28;20066;-79
2022/01/02 04:37:14;;;;;;;15.45;3.85;;;11.50;99.90;;;;;;4972884;28;20047;-79
2022/01/02 04:39:40;;;;;;;8.75;3.08;;;11.50;99.90;;;;;;4973216;28;20076;-79
2022/01/02 04:42:07;;;;;;;8.10;3.20;;;11.50;99.90;;;;;;4973160;28;20042;-79
2022/01/02 04:44:33;;;;;;;10.57;3.42;;;11.50;99.90;;;;;;4956755;28;20175;-79
2022/01/02 04:46:58;;;;;;;13.50;4.72;;;11.50;99.90;;;;;;4972604;28;20057;-79
2022/01/02 04:49:24;;;;;;;7.97;3.33;;;11.50;99.90;;;;;;4972863;28;20046;-79
2022/01/02 04:51:52;;;;;;;10.55;3.85;;;11.50;99.90;;;;;;4973225;28;20050;-79
2022/01/02 04:54:18;;;;;;;7.20;2.90;;;11.50;99.90;;;;;;4956463;28;20043;-79
2022/01/02 04:56:43;;;;;;;11.75;3.40;;;11.50;99.90;;;;;;4972556;28;20039;-79
2022/01/02 04:59:09;;;;;;;10.73;3.60;;;11.50;99.90;;;;;;4973978;28;20043;-79
2022/01/02 05:01:34;;;;;;;10.40;2.85;;;11.50;99.90;;;;;;4973476;28;20046;-79
2022/01/02 05:04:00;;;;;;;14.20;3.47;;;11.50;99.90;;;;;;4973379;28;20042;-80
2022/01/02 05:06:25;;;;;;;14.00;3.08;;;11.60;99.90;;;;;;4972599;28;20034;-80
2022/01/02 05:08:51;;;;;;;6.55;2.92;;;11.60;99.90;;;;;;4972770;28;20399;-80
2022/01/02 05:11:17;;;;;;;6.45;2.85;;;11.60;99.90;;;;;;4973036;28;20542;-80
2022/01/02 05:13:43;;;;;;;9.68;2.50;;;11.60;99.90;;;;;;4973737;28;20526;-79
2022/01/02 05:16:10;;;;;;;8.98;2.53;;;11.60;99.90;;;;;;4959592;28;20043;-79
2022/01/02 05:18:47;;;;;;;5.72;2.65;;;11.60;99.90;;;;;;5013215;23;20057;-80
2022/01/02 05:21:29;;;;;;;8.23;2.97;;;11.70;99.90;;;;;;4977400;28;20046;-80
2022/01/02 05:24:06;;;;;;;9.13;2.78;;;11.70;99.90;;;;;;4977193;28;20411;-80
2022/01/02 05:26:55;;;;;;;8.02;2.45;;;11.70;99.90;;;;;;4960570;28;20038;-80
2022/01/02 05:29:30;;;;;;;11.35;2.67;;;11.70;99.90;;;;;;4961311;28;20046;-80
2022/01/02 05:31:59;;;;;;;9.82;3.50;;;11.70;99.90;;;;;;4960848;28;20468;-80
2022/01/02 05:34:27;;;;;;;10.23;2.80;;;11.70;99.90;;;;;;4959854;28;20046;-75
2022/01/02 05:36:55;;;;;;;4.05;2.10;;;11.70;99.90;;;;;;4958978;28;20039;-75
2022/01/02 05:39:22;;;;;;;7.93;2.80;;;11.80;99.90;;;;;;4959367;28;20102;-75
2022/01/02 05:41:49;;;;;;;12.05;2.95;;;11.80;99.90;;;;;;4959293;28;20043;-77
2022/01/02 05:44:14;;;;;;;9.85;3.13;;;11.90;99.90;;;;;;4959072;28;20063;-78
2022/01/02 05:46:41;;;;;;;10.52;2.60;;;11.90;99.90;;;;;;4942827;28;20053;-77
2022/01/02 05:49:07;;;;;;;8.50;2.83;;;12.00;99.90;;;;;;4942748;28;20046;-76
2022/01/02 05:51:33;;;;;;;7.25;1.92;;;11.90;99.90;;;;;;4959248;28;20055;-76
2022/01/02 05:54:01;;;;;;;10.75;2.10;;;12.00;99.90;;;;;;4958987;28;20046;-76
2022/01/02 05:56:30;;;;;;;13.50;2.38;;;12.00;99.90;;;;;;4958605;28;20468;-76
2022/01/02 05:58:56;;;;;;;5.93;1.98;;;12.10;99.90;;;;;;4958646;28;20078;-77
2022/01/02 06:01:21;;;;;;;7.97;1.90;;;12.20;99.90;;;;;;4958775;28;20074;-76
2022/01/02 06:03:47;;;;;;;8.35;2.45;;;12.10;99.90;;;;;;4958863;28;20451;-76
2022/01/02 06:06:18;;;;;;;8.48;2.45;;;12.10;99.90;;;;;;4958481;28;20054;-76
2022/01/02 06:08:47;;;;;;;9.85;2.30;;;12.10;99.90;;;;;;4958632;28;20050;-76
2022/01/02 06:11:21;;;;;;;5.82;2.67;;;12.10;99.90;;;;;;4958767;28;20052;-76
2022/01/02 06:13:47;;;;;;;15.65;3.03;;;12.10;99.90;;;;;;4958549;28;20086;-76
2022/01/02 06:16:30;;;;;;;9.55;2.80;;;12.10;99.90;;;;;;4958045;28;20408;-76
2022/01/02 06:18:57;;;;;;;5.30;2.58;;;12.20;99.90;;;;;;4958239;28;20047;-76
2022/01/02 06:21:30;;;;;;;11.32;2.55;;;12.10;99.90;;;;;;4975826;28;20043;-76
2022/01/02 06:24:05;;;;;;;8.00;2.25;;;12.10;99.90;;;;;;4958307;28;20484;-76
2022/01/02 06:26:30;;;;;;;6.82;2.05;;;12.20;99.90;;;;;;4957861;28;20408;-76
2022/01/02 06:29:02;;;;;;;10.60;2.28;;;12.20;99.90;;;;;;4975561;28;20042;-76
2022/01/02 06:31:29;;;;;;;9.85;2.40;;;12.20;99.90;;;;;;4958363;28;20046;-75
2022/01/02 06:33:55;;;;;;;10.60;2.70;;;12.20;99.90;;;;;;4958132;28;20133;-76
2022/01/02 06:36:26;;;;;;;8.23;2.22;;;12.20;99.90;;;;;;4958210;28;20499;-76
2022/01/02 06:39:16;;;;;;;6.95;2.03;;;12.10;99.90;;;;;;4941973;28;20082;-76
2022/01/02 06:41:45;;;;;;;6.30;2.30;;;12.20;99.90;;;;;;4958142;28;20047;-76
2022/01/02 06:44:27;;;;;;;7.72;2.60;;;12.10;99.90;;;;;;4942082;28;20615;-76
2022/01/02 06:46:52;;;;;;;5.30;2.20;;;12.10;99.90;;;;;;4973924;28;20087;-76
2022/01/02 06:55:04;;;;;;;6.07;2.30;;;12.10;99.90;;;;;;4957601;28;20055;-76
2022/01/02 06:57:32;;;;;;;5.25;2.08;;;12.00;99.90;;;;;;4957229;28;20504;-76
2022/01/02 07:00:16;;;;;;;11.93;2.67;;;12.10;99.90;;;;;;4958011;28;20046;-76
2022/01/02 07:03:12;;;;;;;4.60;2.40;;;12.00;99.90;;;;;;4957941;28;20034;-77
2022/01/02 07:05:46;;;;;;;6.50;2.33;;;12.10;99.90;;;;;;4957678;28;20047;-76
2022/01/02 07:08:15;;;;;;;6.18;3.13;;;12.10;99.90;;;;;;4957297;28;20514;-76
2022/01/02 07:10:40;;;;;;;10.30;2.90;;;12.10;99.90;;;;;;4957496;28;20041;-76
2022/01/02 07:13:11;;;;;;;11.00;2.33;;;12.00;99.90;;;;;;4957527;28;20042;-76
2022/01/02 07:15:50;;;;;;;7.60;3.05;;;12.10;99.90;;;;;;4954681;28;20503;-76
2022/01/02 07:18:23;;;;;;;9.32;2.60;;;12.00;99.90;;;;;;4957517;28;20077;-80
2022/01/02 07:20:54;;;;;;;6.55;2.33;;;12.00;99.90;;;;;;4975387;28;20127;-79
2022/01/02 07:23:23;;;;;;;9.95;2.75;;;12.10;99.90;;;;;;4959262;28;20039;-79
2022/01/02 07:26:15;;;;;;;4.97;2.25;;;12.00;99.90;;;;;;4976548;28;20042;-80
2022/01/02 07:31:50;;;;;;;3.75;2.17;;;12.10;99.90;;;;;;4959510;28;20051;-80
2022/01/02 07:34:36;;;;;;;4.22;2.35;;;12.00;99.90;;;;;;4959788;28;20055;-80
2022/01/02 07:39:51;;;;;;;8.77;2.88;;;12.00;99.90;;;;;;5020058;23;20430;-80
2022/01/02 07:42:38;;;;;;;13.75;2.80;;;12.00;99.90;;;;;;5015783;28;20037;-80
2022/01/02 07:45:29;;;;;;;3.78;2.28;;;12.10;99.90;;;;;;4997358;28;20495;-79
2022/01/02 07:48:00;;;;;;;11.02;2.83;;;12.00;99.90;;;;;;4998337;28;20045;-80
2022/01/02 07:50:59;;;;;;;9.35;3.70;;;12.00;99.90;;;;;;5013772;28;20038;-80
2022/01/02 07:53:47;;;;;;;7.07;2.72;;;12.00;99.90;;;;;;4992491;28;20056;-79
2022/01/02 07:56:18;;;;;;;7.50;2.65;;;12.00;99.90;;;;;;4997371;28;20050;-80
2022/01/02 07:58:46;;;;;;;11.18;3.15;;;11.90;99.90;;;;;;4997384;28;20045;-80
2022/01/02 08:01:12;;;;;;;6.00;2.58;;;11.90;99.90;;;;;;4997266;28;20084;-80
2022/01/02 08:03:38;;;;;;;5.13;3.67;;;11.90;99.90;;;;;;4996639;28;20046;-80
2022/01/02 08:06:04;;;;;;;6.75;2.75;;;11.90;99.90;;;;;;4996384;28;20041;-80
2022/01/02 08:08:32;;;;;;;6.72;2.53;;;11.90;99.90;;;;;;5013146;28;20121;-80
2022/01/02 08:11:01;;;;;;;5.90;2.60;;;12.00;99.90;;;;;;4997096;28;20541;-80
2022/01/02 08:13:29;;;;;;;12.75;3.30;;;11.90;99.90;;;;;;4997966;28;20129;-80
2022/01/02 08:15:54;;;;;;;8.05;3.38;;;11.90;99.90;;;;;;4997411;28;20050;-80
2022/01/02 08:18:23;;;;;;;4.93;2.60;;;12.00;99.90;;;;;;4981398;28;20052;-79
2022/01/02 08:20:51;;;;;;;5.60;2.28;;;11.90;99.90;;;;;;4997236;28;20046;-80
2022/01/02 08:23:17;;;;;;;11.35;3.85;;;11.80;99.90;;;;;;4997425;28;20088;-79
2022/01/02 08:25:45;;;;;;;6.55;2.28;;;11.80;99.90;;;;;;4996929;28;20049;-80
2022/01/02 08:28:15;;;;;;;4.07;2.50;;;11.70;99.90;;;;;;4997080;28;20388;-81
2022/01/02 08:30:43;;;;;;;6.13;2.20;;;11.70;99.90;;;;;;4998127;28;20112;-80
2022/01/02 08:33:09;;;;;;;6.85;2.38;;;11.70;99.90;;;;;;4997343;28;20046;-80
2022/01/02 08:35:35;;;;;;;6.32;2.40;;;11.70;99.90;;;;;;4996679;28;20052;-80
2022/01/02 08:38:00;;;;;;;7.05;2.80;;;11.60;99.90;;;;;;4997022;28;20117;-80
2022/01/02 08:40:26;;;;;;;8.43;3.08;;;11.60;99.90;;;;;;4997618;28;20135;-80
2022/01/02 08:42:52;;;;;;;4.43;2.67;;;11.60;99.90;;;;;;4998246;28;20562;-80
2022/01/02 08:45:17;;;;;;;6.47;2.53;;;11.60;99.90;;;;;;4997500;28;20102;-80
2022/01/02 08:47:43;;;;;;;7.63;2.58;;;11.60;99.90;;;;;;4998261;28;20046;-80
2022/01/02 08:50:08;;;;;;;4.10;2.17;;;11.50;99.90;;;;;;4997117;28;20121;-80
2022/01/02 08:52:35;;;;;;;6.40;2.22;;;11.60;99.90;;;;;;5015644;28;20037;-80
2022/01/02 08:55:00;;;;;;;5.25;2.50;;;11.60;99.90;;;;;;4997221;28;20046;-80
2022/01/02 08:57:26;;;;;;;10.55;2.65;;;11.60;99.90;;;;;;4997182;28;20100;-80
2022/01/02 08:59:51;;;;;;;12.25;2.75;;;11.60;99.90;;;;;;4981636;28;20046;-81
2022/01/02 09:02:17;;;;;;;7.55;2.92;;;11.70;99.90;;;;;;4997266;28;20034;-81
2022/01/02 09:04:42;;;;;;;5.95;2.60;;;11.70;99.90;;;;;;4997211;28;20045;-81
2022/01/02 09:07:08;;;;;;;4.30;2.17;;;11.70;99.90;;;;;;4998103;28;20042;-80
2022/01/02 09:09:33;;;;;;;12.20;2.97;;;11.80;99.90;;;;;;5015167;28;20124;-81
2022/01/02 09:11:59;;;;;;;3.28;2.00;;;11.80;99.90;;;;;;4998508;28;20125;-80
2022/01/02 09:14:25;;;;;;;4.15;2.47;;;11.80;99.90;;;;;;4998398;28;20092;-80
2022/01/02 09:16:50;;;;;;;6.30;2.88;;;11.80;99.90;;;;;;4998012;28;20502;-80
2022/01/02 09:19:16;;;;;;;6.75;2.90;;;11.80;99.90;;;;;;4999326;28;20038;-80
2022/01/02 09:21:41;;;;;;;5.70;2.15;;;11.80;99.90;;;;;;4997918;28;20042;-81
2022/01/02 09:24:07;;;;;;;7.55;3.30;;;11.80;99.90;;;;;;4983565;28;20038;-80
2022/01/02 09:26:32;;;;;;;6.03;2.75;;;11.80;99.90;;;;;;4982085;28;20095;-81
2022/01/02 09:28:58;;;;;;;6.35;3.33;;;11.80;99.90;;;;;;4999130;28;20127;-81
2022/01/02 09:31:24;;;;;;;3.97;1.83;;;11.80;99.90;;;;;;4999078;28;20046;-80
2022/01/02 09:33:49;;;;;;;8.45;2.55;;;11.80;99.90;;;;;;4981953;28;20414;-80
2022/01/02 09:36:16;;;;;;;5.07;2.45;;;11.80;99.90;;;;;;4997517;28;20502;-80
2022/01/02 09:38:42;;;;;;;6.65;2.67;;;11.80;99.90;;;;;;4998305;28;20106;-80
2022/01/02 09:41:08;;;;;;;5.82;2.90;;;11.90;99.90;;;;;;4998215;28;20038;-80
2022/01/02 09:43:34;;;;;;;7.72;2.65;;;11.90;99.90;;;;;;4994560;28;20037;-78
2022/01/02 09:45:59;;;;;;;8.45;3.35;;;11.90;99.90;;;;;;4994038;28;20096;-76
2022/01/02 09:48:27;;;;;;;6.47;2.53;;;11.90;99.90;;;;;;4994135;28;20120;-76
2022/01/02 09:50:53;;;;;;;11.23;3.47;;;11.90;99.90;;;;;;4994068;28;20050;-77
2022/01/02 09:53:18;;;;;;;8.13;3.15;;;11.90;99.90;;;;;;4994094;28;20072;-77
2022/01/02 09:55:44;;;;;;;7.63;2.88;;;11.90;99.90;;;;;;4993859;28;20411;-77
2022/01/02 09:58:13;;;;;;;8.80;3.50;;;12.00;99.90;;;;;;5011394;28;20487;-78
2022/01/02 10:00:40;;;;;;;8.50;2.88;;;12.00;99.90;;;;;;4994218;28;20153;-77
2022/01/02 10:03:10;;;;;;;6.32;3.08;;;12.00;99.90;;;;;;4997369;28;20083;-77
2022/01/02 10:06:01;;;;;;;5.20;2.88;;;12.00;99.90;;;;;;4981046;28;20045;-76
2022/01/02 10:08:31;;;;;;;6.03;2.58;;;12.10;99.90;;;;;;4997665;28;20042;-77
2022/01/02 10:11:04;;;;;;;8.35;3.28;;;12.00;99.90;;;;;;4997461;28;20066;-78
2022/01/02 10:13:45;;;;;;;8.55;2.78;;;12.00;99.90;;;;;;4997655;28;20104;-77
2022/01/02 10:16:26;;;;;;;9.23;3.17;;;12.00;99.90;;;;;;4997274;28;20433;-77
2022/01/02 10:18:53;;;;;;;10.43;3.25;;;12.10;99.90;;;;;;4981372;28;20442;-77
2022/01/02 10:21:31;;;;;;;6.35;2.70;;;12.10;99.90;;;;;;4997157;28;20053;-78
2022/01/02 10:24:22;;;;;;;5.40;2.83;;;12.10;99.90;;;;;;4997129;28;20046;-76
2022/01/02 10:27:12;;;;;;;8.00;3.00;;;12.10;99.90;;;;;;5014583;28;20044;-77
2022/01/02 10:29:40;;;;;;;13.02;3.13;;;12.20;99.90;;;;;;4997218;28;20037;-77
2022/01/02 10:32:26;;;;;;;8.18;3.17;;;12.20;99.90;;;;;;4997397;28;20418;-77
2022/01/02 10:35:05;;;;;;;4.00;2.65;;;12.20;99.90;;;;;;4980589;28;20038;-77
2022/01/02 10:37:31;;;;;;;4.75;2.60;;;12.30;99.90;;;;;;4996620;28;20129;-78
2022/01/02 10:39:56;;;;;;;4.07;2.88;;;12.30;99.90;;;;;;4996637;28;20128;-77
2022/01/02 10:42:23;;;;;;;4.53;2.85;;;12.30;99.90;;;;;;4996696;28;20379;-77
2022/01/02 10:44:49;;;;;;;7.63;3.10;;;12.30;99.90;;;;;;4996587;28;20045;-75
2022/01/02 10:47:15;;;;;;;5.63;3.25;;;12.30;99.90;;;;;;4996342;28;20076;-77
2022/01/02 10:50:05;;;;;;;3.90;2.40;;;12.30;99.90;;;;;;4996936;28;20050;-79
2022/01/02 10:52:35;;;;;;;7.25;2.70;;;12.40;99.90;;;;;;4994522;28;20052;-80
2022/01/02 10:55:26;;;;;;;10.15;3.83;;;12.40;99.90;;;;;;4986863;28;20092;-80
2022/01/02 10:57:53;;;;;;;9.00;3.33;;;12.40;99.90;;;;;;4978725;28;20074;-82
2022/01/02 11:00:22;;;;;;;4.93;3.00;;;12.50;99.90;;;;;;4992135;28;20113;-80
2022/01/02 11:02:48;;;;;;;7.72;3.38;;;12.50;99.90;;;;;;4997283;28;20034;-79
2022/01/02 11:05:16;;;;;;;9.30;3.78;;;12.40;99.90;;;;;;4987781;28;20454;-80
2022/01/02 11:07:49;;;;;;;7.78;3.33;;;12.40;99.90;;;;;;4982433;28;20041;-80
2022/01/02 11:10:18;;;;;;;6.60;3.47;;;12.40;99.90;;;;;;4984245;28;20525;-80
2022/01/02 11:12:45;;;;;;;9.57;3.60;;;12.40;99.90;;;;;;4998160;28;20038;-80
2022/01/02 11:15:14;;;;;;;11.80;3.65;;;12.30;99.90;;;;;;4986163;28;20072;-80
2022/01/02 11:17:40;;;;;;;13.10;3.78;;;12.30;99.90;;;;;;5004194;28;20493;-80
2022/01/02 11:20:11;;;;;;;11.50;3.38;;;12.30;99.90;;;;;;5002123;28;20125;-81
2022/01/02 11:22:52;;;;;;;4.65;3.53;;;12.30;99.90;;;;;;4983417;28;20034;-80
2022/01/02 11:25:29;;;;;;;7.30;2.88;;;12.30;99.90;;;;;;4998661;28;20042;-80
2022/01/02 11:28:05;;;;;;;5.97;3.67;;;12.30;99.90;;;;;;4997206;28;20049;-80
2022/01/02 11:30:31;;;;;;;10.55;3.47;;;12.30;99.90;;;;;;5002393;28;20086;-80
2022/01/02 11:33:05;;;;;;;7.70;3.45;;;12.30;99.90;;;;;;5001417;28;20045;-79
2022/01/02 11:35:31;;;;;;;4.47;2.75;;;12.30;99.90;;;;;;5001741;28;20473;-80
2022/01/02 11:38:02;;;;;;;7.30;4.15;;;12.30;99.90;;;;;;5001136;28;20380;-80
2022/01/02 11:40:53;;;;;;;8.80;3.20;;;12.30;99.90;;;;;;5002212;28;20034;-80
2022/01/02 11:43:57;;;;;;;11.45;3.63;;;12.30;99.90;;;;;;4985621;28;20042;-80
2022/01/02 11:46:28;;;;;;;6.80;3.08;;;12.30;99.90;;;;;;4999010;28;20100;-81
2022/01/02 11:49:16;;;;;;;4.63;3.00;;;12.30;99.90;;;;;;4982973;28;20084;-80
2022/01/02 11:51:47;;;;;;;7.65;2.88;;;12.30;99.90;;;;;;4999864;28;20280;-81
2022/01/02 11:54:28;;;;;;;5.85;2.90;;;12.30;99.90;;;;;;4983006;28;20052;-80
2022/01/02 11:56:55;;;;;;;9.75;3.13;;;12.30;99.90;;;;;;4999153;28;20042;-80
2022/01/02 11:59:39;;;;;;;8.30;3.53;;;12.30;99.90;;;;;;4999365;28;20502;-81
2022/01/02 12:02:08;;;;;;;9.10;3.50;;;12.20;99.90;;;;;;4998395;28;20042;-80
2022/01/02 12:04:59;;;;;;;8.40;2.90;;;12.20;99.90;;;;;;4999251;28;20049;-81
2022/01/02 12:07:34;;;;;;;5.93;3.00;;;12.20;99.90;;;;;;4998297;28;20041;-81
2022/01/02 12:10:26;;;;;;;7.40;3.63;;;12.20;99.90;;;;;;4998323;28;20037;-81
2022/01/02 12:12:57;;;;;;;7.10;3.05;;;12.20;99.90;;;;;;4971494;28;20423;-81
2022/01/02 12:15:24;;;;;;;6.93;2.92;;;12.20;99.90;;;;;;4997890;28;20057;-81
2022/01/02 12:18:10;;;;;;;7.10;3.67;;;12.20;99.90;;;;;;4996888;28;20514;-81
2022/01/02 12:20:51;;;;;;;6.00;3.33;;;12.20;99.90;;;;;;4980154;28;20053;-81
2022/01/02 12:23:40;;;;;;;5.88;3.22;;;12.20;99.90;;;;;;4981668;28;20038;-80
2022/01/02 12:26:06;;;;;;;8.60;2.97;;;12.20;99.90;;;;;;4980196;28;20092;-77
2022/01/02 12:29:01;;;;;;;9.30;2.05;;;12.20;99.90;;;;;;4996528;28;20050;-77
2022/01/02 12:31:35;;;;;;;11.20;3.28;;;12.20;99.90;;;;;;4980227;28;20065;-77
2022/01/02 12:34:19;;;;;;;5.90;2.97;;;12.20;99.90;;;;;;4996470;28;20085;-76
2022/01/02 12:36:47;;;;;;;7.43;2.70;;;12.20;99.90;;;;;;4979230;28;20465;-77
2022/01/02 12:39:27;;;;;;;6.88;1.73;;;12.30;99.90;;;;;;4979402;28;20034;-77
2022/01/02 12:41:53;;;;;;;6.28;2.33;;;12.30;99.90;;;;;;4979464;28;20037;-77
2022/01/02 12:44:28;;;;;;;8.52;2.17;;;12.40;99.90;;;;;;5013006;28;20091;-75
2022/01/02 12:46:55;;;;;;;6.13;2.67;;;12.40;99.90;;;;;;4994831;28;20368;-76
2022/01/02 12:49:30;;;;;;;7.35;1.58;;;12.40;99.90;;;;;;5012145;28;20042;-76
2022/01/02 12:51:58;;;;;;;6.68;2.00;;;12.50;99.90;;;;;;5012397;28;20045;-76
2022/01/02 12:54:29;;;;;;;9.50;1.63;;;12.50;99.90;;;;;;4994760;28;20096;-76
2022/01/02 12:56:58;;;;;;;8.25;1.92;;;12.50;99.90;;;;;;4994465;28;20041;-76
2022/01/02 12:59:35;;;;;;;7.20;1.95;;;12.50;99.90;;;;;;5011970;28;20126;-76
2022/01/02 13:02:13;;;;;;;8.30;1.92;;;12.50;99.90;;;;;;5012108;28;20081;-77
2022/01/02 13:04:47;;;;;;;9.15;1.30;;;12.50;99.90;;;;;;4994669;28;20057;-76
2022/01/02 13:07:27;;;;;;;7.55;1.95;;;12.40;99.90;;;;;;4994064;28;20048;-76
2022/01/02 13:09:55;;;;;;;7.45;1.60;;;12.40;99.90;;;;;;5012094;28;20576;-78
2022/01/02 13:12:23;;;;;;;7.13;1.83;;;12.40;99.90;;;;;;5011957;28;20044;-77
2022/01/02 13:14:51;;;;;;;7.75;1.70;;;12.30;99.90;;;;;;5011738;28;20046;-77